Time;durP1;ratioP1;P1;durP2;ratioP2;P2;SDS_P1;SDS_P2;PMS_P1;PMS_P2;Temp;Humidity;BMP_temperature;BMP_pressure;BME280_temperature;BME280_humidity;BME280_pressure;Samples;Min_cycle;Max_cycle;Signal;HPM_P1;HPM_P2
2021/06/14 00:00:24;;;;;;;10.03;9.00;;;14.60;99.90;;;;;;5013140;28;20176;-65
2021/06/14 00:02:51;;;;;;;11.07;9.07;;;14.60;99.90;;;;;;5013164;28;20200;-64
2021/06/14 00:05:34;;;;;;;10.87;8.10;;;14.70;99.90;;;;;;5013283;28;20218;-65
2021/06/14 00:08:02;;;;;;;9.77;8.93;;;14.60;99.90;;;;;;5013491;28;20230;-65
2021/06/14 00:10:29;;;;;;;9.70;8.83;;;14.60;99.90;;;;;;5013030;28;20215;-65
2021/06/14 00:12:55;;;;;;;13.53;9.53;;;14.50;99.90;;;;;;5013572;28;20259;-65
2021/06/14 00:15:21;;;;;;;10.23;9.23;;;14.50;99.90;;;;;;5013200;28;20278;-64
2021/06/14 00:17:46;;;;;;;10.37;9.23;;;14.30;99.90;;;;;;5013434;28;20225;-64
2021/06/14 00:20:13;;;;;;;9.40;8.50;;;14.30;99.90;;;;;;5012848;28;20192;-64
2021/06/14 00:22:41;;;;;;;11.03;9.13;;;14.20;99.90;;;;;;5013294;28;20229;-64
2021/06/14 00:25:10;;;;;;;9.00;8.30;;;14.30;99.90;;;;;;5012861;28;20198;-64
2021/06/14 00:27:35;;;;;;;9.83;8.93;;;14.20;99.90;;;;;;5013073;28;20234;-64
2021/06/14 00:30:02;;;;;;;9.70;8.70;;;14.20;99.90;;;;;;5012888;28;20329;-65
2021/06/14 00:32:28;;;;;;;11.07;8.90;;;14.20;99.90;;;;;;5013087;28;20658;-64
2021/06/14 00:34:53;;;;;;;9.73;8.93;;;14.20;99.90;;;;;;5012420;28;20203;-65
2021/06/14 00:37:20;;;;;;;10.27;9.20;;;14.20;99.90;;;;;;5012990;28;20184;-64
2021/06/14 00:39:45;;;;;;;10.37;9.43;;;14.10;99.90;;;;;;5012551;28;20176;-65
2021/06/14 00:42:11;;;;;;;10.37;9.37;;;14.10;99.90;;;;;;5012692;28;20194;-65
2021/06/14 00:44:37;;;;;;;10.43;9.40;;;14.10;99.90;;;;;;5012608;28;20680;-65
2021/06/14 00:47:03;;;;;;;10.17;9.30;;;14.00;99.90;;;;;;5012322;28;20688;-65
2021/06/14 00:49:29;;;;;;;10.30;9.40;;;14.00;99.90;;;;;;5012733;28;20176;-64
2021/06/14 00:51:55;;;;;;;10.43;9.63;;;14.00;99.90;;;;;;5010316;28;20582;-65
2021/06/14 00:54:20;;;;;;;11.00;9.80;;;14.00;99.90;;;;;;5012522;28;20184;-65
2021/06/14 00:56:46;;;;;;;11.80;10.60;;;13.90;99.90;;;;;;5012324;28;20184;-65
2021/06/14 00:59:14;;;;;;;10.40;9.40;;;13.80;99.90;;;;;;5012507;28;20195;-65
2021/06/14 01:01:39;;;;;;;11.83;9.90;;;13.90;99.90;;;;;;5011786;28;20180;-65
2021/06/14 01:04:05;;;;;;;10.90;9.97;;;13.90;99.90;;;;;;5012346;28;20199;-64
2021/06/14 01:06:30;;;;;;;11.20;10.30;;;13.90;99.90;;;;;;5012151;28;20594;-65
2021/06/14 01:08:56;;;;;;;11.97;9.97;;;13.80;99.90;;;;;;5012221;28;20263;-65
2021/06/14 01:11:33;;;;;;;11.30;10.03;;;13.80;99.90;;;;;;5011902;28;20176;-65
2021/06/14 01:14:02;;;;;;;13.90;9.37;;;13.70;99.90;;;;;;5012317;28;20175;-65
2021/06/14 01:16:40;;;;;;;10.73;9.73;;;13.70;99.90;;;;;;5012010;28;20226;-65
2021/06/14 01:19:31;;;;;;;10.77;9.60;;;13.70;99.90;;;;;;5012142;28;20255;-65
2021/06/14 01:22:10;;;;;;;12.73;10.37;;;13.70;99.90;;;;;;5011691;28;20188;-64
2021/06/14 01:25:03;;;;;;;11.13;10.03;;;13.60;99.90;;;;;;5011974;28;20261;-65
2021/06/14 01:27:44;;;;;;;10.23;9.33;;;13.50;99.90;;;;;;5011858;28;20191;-64
2021/06/14 01:30:14;;;;;;;10.03;9.13;;;13.40;99.90;;;;;;5011768;28;20638;-64
2021/06/14 01:32:41;;;;;;;11.10;9.40;;;13.40;99.90;;;;;;5011857;28;20676;-65
2021/06/14 01:35:10;;;;;;;17.07;9.87;;;13.40;99.90;;;;;;5011896;28;20287;-65
2021/06/14 01:37:52;;;;;;;13.13;10.70;;;13.30;99.90;;;;;;5011816;28;20207;-64
2021/06/14 01:40:19;;;;;;;10.83;9.80;;;13.30;99.90;;;;;;5011789;28;20194;-64
2021/06/14 01:42:48;;;;;;;10.00;8.90;;;13.30;99.90;;;;;;5011617;28;20181;-65
2021/06/14 01:45:14;;;;;;;10.23;9.20;;;13.30;99.90;;;;;;5011540;28;20257;-65
2021/06/14 01:47:42;;;;;;;10.27;9.37;;;13.30;99.90;;;;;;5011220;28;20596;-65
2021/06/14 01:50:09;;;;;;;11.57;9.70;;;13.30;99.90;;;;;;5011598;28;20184;-65
2021/06/14 01:52:35;;;;;;;13.57;9.07;;;13.30;99.90;;;;;;5010882;28;20187;-65
2021/06/14 01:55:02;;;;;;;10.33;9.33;;;13.30;99.90;;;;;;5011569;28;20196;-65
2021/06/14 01:57:29;;;;;;;10.73;9.73;;;13.40;99.90;;;;;;5011592;28;20192;-65
2021/06/14 01:59:55;;;;;;;9.73;8.83;;;13.40;99.90;;;;;;5011415;28;20176;-65
2021/06/14 02:02:21;;;;;;;10.53;8.77;;;13.30;99.90;;;;;;5011670;28;20277;-65
2021/06/14 02:04:49;;;;;;;11.50;8.70;;;13.40;99.90;;;;;;5012129;28;20682;-69
2021/06/14 02:07:16;;;;;;;10.10;9.10;;;13.30;99.90;;;;;;5011683;28;20527;-71
2021/06/14 02:09:42;;;;;;;11.23;10.23;;;13.30;99.90;;;;;;5013127;28;20184;-71
2021/06/14 02:12:09;;;;;;;13.30;12.23;;;13.30;99.90;;;;;;5012837;28;20181;-70
2021/06/14 02:14:38;;;;;;;9.63;8.73;;;13.40;99.90;;;;;;5012995;28;20209;-67
2021/06/14 02:17:10;;;;;;;12.17;9.53;;;13.40;99.90;;;;;;5012715;28;20190;-68
2021/06/14 02:19:44;;;;;;;9.57;8.77;;;13.40;99.90;;;;;;5012566;28;20262;-69
2021/06/14 02:22:11;;;;;;;8.53;7.67;;;13.40;99.90;;;;;;5012644;28;20172;-71
2021/06/14 02:24:36;;;;;;;8.70;7.90;;;13.40;99.90;;;;;;5012825;28;20231;-72
2021/06/14 02:27:03;;;;;;;9.67;8.80;;;13.40;99.90;;;;;;5013027;28;20807;-69
2021/06/14 02:29:28;;;;;;;12.00;10.87;;;13.50;99.90;;;;;;5012977;28;20183;-71
2021/06/14 02:31:54;;;;;;;9.07;8.13;;;13.40;99.90;;;;;;5013256;28;20176;-71
2021/06/14 02:34:20;;;;;;;8.47;7.57;;;13.40;99.90;;;;;;5013630;28;20202;-70
2021/06/14 02:36:46;;;;;;;9.13;8.13;;;13.40;99.90;;;;;;5012952;28;20199;-71
2021/06/14 02:39:15;;;;;;;9.40;7.93;;;13.40;99.90;;;;;;5013397;28;20184;-69
2021/06/14 02:41:43;;;;;;;8.83;8.20;;;13.40;99.90;;;;;;5012509;28;20180;-68
2021/06/14 02:44:10;;;;;;;8.87;8.20;;;13.40;99.90;;;;;;5013637;28;20207;-70
2021/06/14 02:46:40;;;;;;;9.03;8.20;;;13.40;99.90;;;;;;5013304;28;20598;-69
2021/06/14 02:49:07;;;;;;;8.83;8.13;;;13.30;99.90;;;;;;5015126;28;20180;-69
2021/06/14 02:51:35;;;;;;;9.80;8.80;;;13.30;99.90;;;;;;5012758;28;20183;-70
2021/06/14 02:54:04;;;;;;;9.30;8.53;;;13.30;99.90;;;;;;5014177;28;20262;-68
2021/06/14 02:56:34;;;;;;;8.83;8.13;;;13.30;99.90;;;;;;5011931;28;20204;-68
2021/06/14 02:59:02;;;;;;;8.97;8.20;;;13.30;99.90;;;;;;5013394;28;20267;-70
2021/06/14 03:01:31;;;;;;;9.90;8.20;;;13.30;99.90;;;;;;5015439;28;20188;-68
2021/06/14 03:03:58;;;;;;;8.30;7.70;;;13.30;99.90;;;;;;5016138;28;20588;-69
2021/06/14 03:06:25;;;;;;;8.20;7.40;;;13.30;99.90;;;;;;5016011;28;20246;-67
2021/06/14 03:08:52;;;;;;;8.30;7.60;;;13.20;99.90;;;;;;5031164;28;20188;-69
2021/06/14 03:11:22;;;;;;;8.67;7.93;;;13.10;99.90;;;;;;5015210;28;20260;-68
2021/06/14 03:13:48;;;;;;;8.90;8.20;;;13.10;99.90;;;;;;5016057;28;20177;-70
2021/06/14 03:16:16;;;;;;;8.67;7.70;;;13.10;99.90;;;;;;5016302;28;20681;-71
2021/06/14 03:18:43;;;;;;;8.37;7.60;;;13.10;99.90;;;;;;5016265;28;20260;-67
2021/06/14 03:21:10;;;;;;;9.43;8.43;;;13.10;99.90;;;;;;5015166;28;20176;-67
2021/06/14 03:23:36;;;;;;;8.63;7.93;;;13.00;99.90;;;;;;5015862;28;20208;-69
2021/06/14 03:26:04;;;;;;;9.13;7.70;;;13.00;99.90;;;;;;5015598;28;20776;-69
2021/06/14 03:28:31;;;;;;;8.47;7.67;;;13.00;99.90;;;;;;5015726;28;20226;-68
2021/06/14 03:30:56;;;;;;;8.67;7.77;;;13.00;99.90;;;;;;5015027;28;20176;-70
2021/06/14 03:33:22;;;;;;;8.27;7.57;;;13.10;99.90;;;;;;5015896;28;20184;-69
2021/06/14 03:35:49;;;;;;;8.27;7.73;;;13.00;99.90;;;;;;5015685;28;20270;-68
2021/06/14 03:38:15;;;;;;;8.33;7.50;;;13.10;99.90;;;;;;5016115;28;20199;-67
2021/06/14 03:40:41;;;;;;;8.47;7.60;;;13.10;99.90;;;;;;5015531;28;20188;-68
2021/06/14 03:43:07;;;;;;;9.50;8.67;;;13.20;99.90;;;;;;5015341;28;20204;-68
2021/06/14 03:45:33;;;;;;;7.90;7.23;;;13.20;99.90;;;;;;5015317;28;20212;-69
2021/06/14 03:47:59;;;;;;;8.13;7.63;;;13.20;99.90;;;;;;5015955;28;20634;-69
2021/06/14 03:50:26;;;;;;;9.43;8.57;;;13.20;99.90;;;;;;5015596;28;20267;-67
2021/06/14 03:52:52;;;;;;;8.50;7.80;;;13.20;99.90;;;;;;5014478;28;20259;-65
2021/06/14 03:55:19;;;;;;;9.30;8.47;;;13.30;99.90;;;;;;5013433;28;20200;-65
2021/06/14 03:57:45;;;;;;;10.40;8.40;;;13.30;99.90;;;;;;5013709;28;20631;-64
2021/06/14 04:00:13;;;;;;;7.60;7.00;;;13.40;99.90;;;;;;5013180;28;20195;-65
2021/06/14 04:02:40;;;;;;;9.00;8.13;;;13.40;99.90;;;;;;5013273;28;20197;-65
2021/06/14 04:05:07;;;;;;;7.30;6.70;;;13.50;99.90;;;;;;5013415;28;20196;-65
2021/06/14 04:07:33;;;;;;;8.97;8.17;;;13.60;99.90;;;;;;5013208;28;20188;-65
2021/06/14 04:09:59;;;;;;;8.90;8.30;;;13.70;99.90;;;;;;5012809;28;20199;-65
2021/06/14 04:12:28;;;;;;;7.50;6.80;;;13.90;99.90;;;;;;5013280;28;20267;-65
2021/06/14 04:14:54;;;;;;;7.47;6.77;;;14.10;99.90;;;;;;5013429;28;20254;-65
2021/06/14 04:17:20;;;;;;;7.20;6.50;;;14.30;99.90;;;;;;5013038;28;20192;-64
2021/06/14 04:19:46;;;;;;;7.87;7.00;;;14.50;99.90;;;;;;5013051;28;20180;-64
2021/06/14 04:22:12;;;;;;;8.17;7.17;;;14.70;99.90;;;;;;5012916;28;20554;-65
2021/06/14 04:24:37;;;;;;;8.17;7.57;;;15.00;99.90;;;;;;5013011;28;20222;-65
2021/06/14 04:27:04;;;;;;;7.43;6.83;;;15.20;99.90;;;;;;5012912;28;20187;-64
2021/06/14 04:29:29;;;;;;;9.27;7.10;;;15.40;99.90;;;;;;5013208;28;20539;-65
2021/06/14 04:31:56;;;;;;;7.53;6.80;;;15.50;99.90;;;;;;5012657;28;20195;-65
2021/06/14 04:34:22;;;;;;;7.60;7.00;;;15.60;99.90;;;;;;5012992;28;20180;-65
2021/06/14 04:36:47;;;;;;;8.40;7.70;;;15.70;99.90;;;;;;5012717;28;20195;-65
2021/06/14 04:39:13;;;;;;;8.40;7.70;;;15.90;99.90;;;;;;5012963;28;20187;-65
2021/06/14 04:41:39;;;;;;;7.60;7.10;;;16.00;99.90;;;;;;5012341;28;20283;-65
2021/06/14 04:44:05;;;;;;;7.43;6.83;;;16.10;99.90;;;;;;5012876;28;20204;-65
2021/06/14 04:46:30;;;;;;;8.03;7.27;;;16.30;99.90;;;;;;5049026;22;20242;-68
2021/06/14 04:48:56;;;;;;;7.27;6.67;;;16.50;99.90;;;;;;5032510;28;20278;-68
2021/06/14 04:51:22;;;;;;;7.90;7.10;;;16.60;99.90;;;;;;5021607;28;20180;-68
2021/06/14 04:53:47;;;;;;;8.00;7.40;;;16.80;99.90;;;;;;5028097;28;20182;-68
2021/06/14 04:56:13;;;;;;;8.10;7.00;;;16.90;99.90;;;;;;5024727;28;20200;-68
2021/06/14 04:58:38;;;;;;;7.87;7.17;;;17.10;99.90;;;;;;5012697;28;20187;-68
2021/06/14 05:01:04;;;;;;;8.17;7.47;;;17.20;99.90;;;;;;5017591;28;20175;-68
2021/06/14 05:03:30;;;;;;;8.07;7.27;;;17.20;99.90;;;;;;5032077;28;20217;-67
2021/06/14 05:05:55;;;;;;;7.87;7.17;;;17.30;99.90;;;;;;5019922;28;20212;-67
2021/06/14 05:08:21;;;;;;;7.90;7.20;;;17.30;99.90;;;;;;5012549;28;20180;-67
2021/06/14 05:10:48;;;;;;;8.63;7.83;;;17.50;99.90;;;;;;5004832;28;20277;-68
2021/06/14 05:13:14;;;;;;;7.00;6.40;;;17.50;99.90;;;;;;5031867;28;20203;-68
2021/06/14 05:15:40;;;;;;;7.90;6.87;;;17.60;99.90;;;;;;5023010;28;20232;-68
2021/06/14 05:18:06;;;;;;;7.27;6.57;;;17.80;99.90;;;;;;5012305;28;20688;-68
2021/06/14 05:20:32;;;;;;;8.40;6.43;;;18.00;99.90;;;;;;5018266;28;20237;-68
2021/06/14 05:22:58;;;;;;;7.00;6.40;;;18.10;99.90;;;;;;5031497;28;20229;-68
2021/06/14 05:25:24;;;;;;;6.87;6.37;;;18.20;99.90;;;;;;5026230;28;20203;-68
2021/06/14 05:27:50;;;;;;;6.67;6.17;;;18.20;99.90;;;;;;5012105;28;20172;-67
2021/06/14 05:30:16;;;;;;;8.47;6.03;;;18.20;99.90;;;;;;5021287;28;20733;-67
2021/06/14 05:32:43;;;;;;;7.30;6.63;;;18.30;99.90;;;;;;5031722;28;20562;-68
2021/06/14 05:35:10;;;;;;;7.07;6.43;;;18.50;99.90;;;;;;5029881;28;20300;-68
2021/06/14 05:37:36;;;;;;;7.20;6.60;;;18.70;99.90;;;;;;5031716;28;20306;-68
2021/06/14 05:40:05;;;;;;;7.63;6.40;;;18.90;99.90;;;;;;5028294;28;20225;-68
2021/06/14 05:42:31;;;;;;;6.80;6.20;;;19.00;99.90;;;;;;5018700;28;20207;-68
2021/06/14 05:44:56;;;;;;;6.95;6.35;;;19.20;99.90;;;;;;5011847;28;20273;-68
2021/06/14 05:47:22;;;;;;;9.18;8.45;;;19.40;99.90;;;;;;5011957;28;20175;-67
2021/06/14 05:49:48;;;;;;;7.95;7.18;;;19.70;99.90;;;;;;5020652;28;20530;-68
2021/06/14 05:52:14;;;;;;;7.95;7.20;;;19.90;99.90;;;;;;5030758;28;20174;-67
2021/06/14 05:54:39;;;;;;;6.78;6.18;;;20.20;99.90;;;;;;5023715;28;20176;-70
2021/06/14 05:57:06;;;;;;;6.95;6.35;;;20.40;99.90;;;;;;5011828;28;20260;-68
2021/06/14 05:59:32;;;;;;;6.72;6.13;;;20.50;99.90;;;;;;5017115;28;20213;-67
2021/06/14 06:01:58;;;;;;;7.30;6.00;;;20.90;99.90;;;;;;5031310;28;20700;-68
2021/06/14 06:04:23;;;;;;;6.93;6.10;;;21.20;99.90;;;;;;5027535;28;20681;-69
2021/06/14 06:06:49;;;;;;;6.60;5.95;;;21.40;99.90;;;;;;5009887;28;20212;-68
2021/06/14 06:09:14;;;;;;;6.57;6.05;;;21.50;99.90;;;;;;5013208;28;20177;-68
2021/06/14 06:11:40;;;;;;;8.10;5.68;;;21.60;99.90;;;;;;5030907;28;20739;-69
2021/06/14 06:14:06;;;;;;;5.75;5.35;;;21.80;99.90;;;;;;5030920;28;20255;-68
2021/06/14 06:16:32;;;;;;;5.70;5.18;;;22.10;99.90;;;;;;5011386;28;20192;-68
2021/06/14 06:18:57;;;;;;;6.20;5.65;;;22.40;99.90;;;;;;5011588;28;20180;-69
2021/06/14 06:21:23;;;;;;;5.97;5.47;;;22.50;99.90;;;;;;5029029;28;20187;-68
2021/06/14 06:23:49;;;;;;;6.07;5.50;;;22.70;99.90;;;;;;5030993;28;20445;-68
2021/06/14 06:26:15;;;;;;;5.95;5.43;;;22.80;99.90;;;;;;5020846;28;20677;-67
2021/06/14 06:28:40;;;;;;;5.28;4.93;;;23.10;99.90;;;;;;5011362;28;20173;-68
2021/06/14 06:31:08;;;;;;;6.13;5.32;;;23.10;99.90;;;;;;5025423;28;20199;-69
2021/06/14 06:33:34;;;;;;;5.45;5.05;;;23.10;99.90;;;;;;5023900;28;20541;-68
2021/06/14 06:36:00;;;;;;;5.90;5.40;;;23.20;99.90;;;;;;5015165;28;20192;-68
2021/06/14 06:38:26;;;;;;;6.32;5.82;;;23.10;99.90;;;;;;5016143;28;20184;-68
2021/06/14 06:40:51;;;;;;;6.70;6.10;;;22.80;99.90;;;;;;5014953;28;20172;-65
2021/06/14 06:43:17;;;;;;;5.40;4.93;;;22.80;99.90;;;;;;5034036;28;20201;-69
2021/06/14 06:45:44;;;;;;;5.30;4.88;;;22.90;99.90;;;;;;5034499;28;20297;-68
2021/06/14 06:48:09;;;;;;;5.28;4.75;;;23.00;99.90;;;;;;5019320;28;20548;-67
2021/06/14 06:50:35;;;;;;;6.10;5.45;;;23.30;99.90;;;;;;5014307;28;20184;-68
2021/06/14 06:53:02;;;;;;;5.45;4.97;;;23.50;99.90;;;;;;5013702;28;20246;-69
2021/06/14 06:55:29;;;;;;;5.13;4.68;;;23.50;99.90;;;;;;5018508;28;20227;-68
2021/06/14 06:57:55;;;;;;;5.35;4.88;;;23.60;99.90;;;;;;5034447;28;20175;-68
2021/06/14 07:00:22;;;;;;;5.10;4.70;;;23.70;99.90;;;;;;5019788;28;20180;-69
2021/06/14 07:02:49;;;;;;;5.85;5.45;;;24.00;99.90;;;;;;5014529;28;20255;-67
2021/06/14 07:05:15;;;;;;;7.05;5.45;;;24.40;99.90;;;;;;5027032;28;20274;-66
2021/06/14 07:07:44;;;;;;;8.43;5.97;;;24.70;99.90;;;;;;5034225;28;20183;-67
2021/06/14 07:10:10;;;;;;;5.53;4.93;;;25.10;99.90;;;;;;5032298;28;20172;-66
2021/06/14 07:12:37;;;;;;;4.93;4.63;;;25.50;99.90;;;;;;5034216;28;20171;-67
2021/06/14 07:15:11;;;;;;;5.72;5.07;;;25.80;99.90;;;;;;5024162;28;20196;-66
2021/06/14 07:17:44;;;;;;;5.10;4.63;;;25.90;99.90;;;;;;5014280;28;20275;-66
2021/06/14 07:20:13;;;;;;;4.68;4.30;;;26.20;99.90;;;;;;5015259;28;20180;-66
2021/06/14 07:22:40;;;;;;;5.47;4.97;;;26.50;99.90;;;;;;5033825;28;20183;-66
2021/06/14 07:25:08;;;;;;;5.43;5.03;;;26.50;99.90;;;;;;5025102;28;20235;-66
2021/06/14 07:27:34;;;;;;;5.07;4.57;;;26.40;99.90;;;;;;5014261;28;20173;-67
2021/06/14 07:30:01;;;;;;;5.05;4.57;;;26.30;99.90;;;;;;5030715;28;20258;-65
2021/06/14 07:32:27;;;;;;;4.70;4.25;;;26.40;99.90;;;;;;5014066;28;20247;-66
2021/06/14 07:34:52;;;;;;;4.32;3.92;;;26.10;99.90;;;;;;5012574;28;20210;-66
2021/06/14 07:37:18;;;;;;;6.22;5.50;;;26.10;99.90;;;;;;5033637;28;20176;-65
2021/06/14 07:39:47;;;;;;;6.35;4.80;;;26.30;99.90;;;;;;5031973;28;20183;-63
2021/06/14 07:42:13;;;;;;;5.57;5.00;;;26.60;99.90;;;;;;5033642;28;20168;-64
2021/06/14 07:44:39;;;;;;;6.22;5.63;;;26.90;99.90;;;;;;5018649;28;20303;-64
2021/06/14 07:47:05;;;;;;;7.55;5.05;;;26.80;99.90;;;;;;5013923;28;20255;-66
2021/06/14 07:49:31;;;;;;;6.07;5.35;;;26.80;99.90;;;;;;5024959;28;20840;-65
2021/06/14 07:51:57;;;;;;;5.47;5.07;;;26.90;99.90;;;;;;5032594;28;20160;-66
2021/06/14 07:54:23;;;;;;;5.63;5.15;;;27.00;99.90;;;;;;5023251;28;20184;-66
2021/06/14 07:56:49;;;;;;;6.50;6.00;;;27.00;99.90;;;;;;5013490;28;20203;-66
2021/06/14 07:59:15;;;;;;;6.00;5.50;;;27.10;99.90;;;;;;5021623;28;20645;-66
2021/06/14 08:01:41;;;;;;;5.57;4.78;;;27.10;99.90;;;;;;5033077;28;20222;-66
2021/06/14 08:04:07;;;;;;;6.18;5.63;;;27.30;99.90;;;;;;5026363;28;20338;-66
2021/06/14 08:06:33;;;;;;;5.78;5.18;;;27.50;99.90;;;;;;5016148;28;20626;-66
2021/06/14 08:09:00;;;;;;;5.13;4.63;;;27.70;99.90;;;;;;5018202;28;20171;-66
2021/06/14 08:11:28;;;;;;;6.88;5.00;;;27.90;99.90;;;;;;5032616;28;20172;-66
2021/06/14 08:13:53;;;;;;;5.40;5.00;;;28.10;99.90;;;;;;5029146;28;20230;-67
2021/06/14 08:16:19;;;;;;;5.53;5.00;;;28.30;99.90;;;;;;5013314;28;20196;-67
2021/06/14 08:19:29;;;;;;;5.72;5.22;;;28.30;99.90;;;;;;5014975;28;20168;-65
2021/06/14 08:26:53;;;;;;;5.32;4.75;;;28.40;99.90;;;;;;5013439;28;20175;-66
2021/06/14 08:29:19;;;;;;;5.45;4.70;;;28.60;99.90;;;;;;5018467;28;20171;-66
2021/06/14 08:31:44;;;;;;;5.32;4.93;;;28.50;99.90;;;;;;5032199;28;20247;-65
2021/06/14 08:34:10;;;;;;;5.97;4.40;;;28.70;99.90;;;;;;5028651;28;20184;-66
2021/06/14 08:36:39;;;;;;;5.35;4.95;;;28.60;99.90;;;;;;5012816;28;20199;-67
2021/06/14 08:39:07;;;;;;;5.60;5.20;;;28.30;99.90;;;;;;5015263;28;20849;-66
2021/06/14 08:41:33;;;;;;;6.50;4.78;;;28.50;99.90;;;;;;5032218;28;20680;-65
2021/06/14 08:44:00;;;;;;;4.93;4.53;;;28.60;99.90;;;;;;5031139;28;20214;-66
2021/06/14 08:46:27;;;;;;;5.70;5.18;;;28.80;99.90;;;;;;5012671;28;20257;-67
2021/06/14 08:48:54;;;;;;;6.65;6.05;;;29.10;99.90;;;;;;5012543;28;20176;-66
2021/06/14 08:51:21;;;;;;;6.03;5.20;;;29.20;99.90;;;;;;4991990;28;20169;-67
2021/06/14 08:53:51;;;;;;;4.90;4.50;;;29.30;99.90;;;;;;4992877;28;20203;-68
2021/06/14 08:56:19;;;;;;;5.03;4.60;;;29.50;99.90;;;;;;4995048;28;20203;-65
2021/06/14 08:58:46;;;;;;;5.05;4.65;;;29.70;99.90;;;;;;5012404;28;20172;-65
2021/06/14 09:01:12;;;;;;;5.43;4.78;;;29.90;99.90;;;;;;5029600;28;20191;-66
2021/06/14 09:03:38;;;;;;;5.80;5.30;;;30.30;99.90;;;;;;5031874;28;20226;-66
2021/06/14 09:06:04;;;;;;;5.30;4.80;;;30.70;99.90;;;;;;5032073;28;20656;-66
2021/06/14 09:08:29;;;;;;;5.35;4.70;;;30.90;99.90;;;;;;5032036;28;20167;-66
2021/06/14 09:10:55;;;;;;;5.15;4.70;;;31.00;99.90;;;;;;5030998;28;20229;-67
2021/06/14 09:13:26;;;;;;;6.13;5.63;;;30.90;99.90;;;;;;5032002;28;20250;-66
2021/06/14 09:16:14;;;;;;;5.60;5.20;;;30.90;99.90;;;;;;5031871;28;20203;-67
2021/06/14 09:18:42;;;;;;;5.28;4.88;;;30.70;99.90;;;;;;5031912;28;20175;-67
2021/06/14 09:21:18;;;;;;;4.78;4.32;;;30.90;99.90;;;;;;5031569;28;20209;-66
2021/06/14 09:23:59;;;;;;;5.70;5.30;;;31.30;99.90;;;;;;5031892;28;20195;-65
2021/06/14 09:26:29;;;;;;;5.10;4.80;;;31.20;99.90;;;;;;5014172;28;20216;-65
2021/06/14 09:29:02;;;;;;;5.28;4.78;;;31.10;99.90;;;;;;5031690;28;20183;-66
2021/06/14 09:31:49;;;;;;;5.78;5.28;;;30.90;99.90;;;;;;5031249;28;20190;-66
2021/06/14 09:34:16;;;;;;;6.15;4.93;;;30.70;99.90;;;;;;5031753;28;20632;-67
2021/06/14 09:36:54;;;;;;;5.05;4.50;;;30.90;99.90;;;;;;5031394;28;20199;-66
2021/06/14 09:39:20;;;;;;;5.13;4.65;;;31.00;99.90;;;;;;5015031;28;20183;-66
2021/06/14 09:41:50;;;;;;;4.55;4.15;;;31.00;99.90;;;;;;5011421;28;20187;-67
2021/06/14 09:44:31;;;;;;;5.15;4.65;;;30.70;99.90;;;;;;5028384;28;20289;-66
2021/06/14 09:47:06;;;;;;;5.40;4.90;;;31.00;99.90;;;;;;5013722;28;20199;-67
2021/06/14 09:49:32;;;;;;;5.47;5.03;;;31.30;99.90;;;;;;5004009;28;20175;-67
2021/06/14 09:51:59;;;;;;;4.90;4.47;;;31.50;99.90;;;;;;5009938;28;20844;-67
2021/06/14 09:54:32;;;;;;;4.60;4.30;;;31.80;99.60;;;;;;5027303;28;20285;-66
2021/06/14 09:56:59;;;;;;;5.05;4.68;;;32.00;99.00;;;;;;5030166;28;20222;-67
2021/06/14 09:59:27;;;;;;;4.82;4.43;;;32.00;98.30;;;;;;5015124;28;20267;-67
2021/06/14 10:02:10;;;;;;;6.65;5.97;;;31.50;99.70;;;;;;5010885;28;20258;-66
2021/06/14 10:04:35;;;;;;;5.13;4.72;;;31.70;99.90;;;;;;5028337;28;20203;-66
2021/06/14 10:07:12;;;;;;;5.80;5.03;;;32.10;99.90;;;;;;5031487;28;20182;-66
2021/06/14 10:09:40;;;;;;;6.95;4.70;;;32.60;98.70;;;;;;5017808;28;20668;-67
2021/06/14 10:12:21;;;;;;;4.80;4.45;;;32.90;97.00;;;;;;5018942;28;20625;-67
2021/06/14 10:14:58;;;;;;;5.38;4.85;;;33.00;98.10;;;;;;5032657;28;20290;-66
2021/06/14 10:17:39;;;;;;;5.05;4.60;;;32.90;97.10;;;;;;5035268;28;20185;-67
2021/06/14 10:20:19;;;;;;;5.35;4.85;;;33.20;97.80;;;;;;5035134;28;20171;-67
2021/06/14 10:22:46;;;;;;;6.20;5.30;;;32.80;96.40;;;;;;5034282;28;20182;-67
2021/06/14 10:25:13;;;;;;;5.07;4.63;;;32.70;96.10;;;;;;5038088;28;20245;-68
2021/06/14 10:27:39;;;;;;;4.90;4.50;;;32.60;95.50;;;;;;5042021;28;20507;-67
2021/06/14 10:30:08;;;;;;;4.22;3.92;;;32.50;96.20;;;;;;5038273;28;20247;-67
2021/06/14 10:32:36;;;;;;;4.82;4.28;;;32.80;95.60;;;;;;5034986;28;20164;-67
2021/06/14 10:35:03;;;;;;;5.47;4.90;;;32.80;95.60;;;;;;5035122;28;20219;-66
2021/06/14 10:37:30;;;;;;;4.47;4.07;;;33.10;97.00;;;;;;5034811;28;20171;-67
2021/06/14 10:39:57;;;;;;;4.15;3.83;;;33.50;96.90;;;;;;5034567;28;20183;-67
2021/06/14 10:42:23;;;;;;;4.53;4.13;;;33.90;96.80;;;;;;5034740;28;20179;-66
2021/06/14 10:44:49;;;;;;;4.68;3.92;;;34.10;94.10;;;;;;5058031;22;21168;-65
2021/06/14 10:47:15;;;;;;;4.40;4.00;;;34.30;93.60;;;;;;5034956;28;20199;-65
2021/06/14 10:49:41;;;;;;;4.30;4.00;;;34.50;93.90;;;;;;5034431;28;20258;-65
2021/06/14 10:52:07;;;;;;;4.40;4.00;;;34.60;91.70;;;;;;5034436;28;20648;-65
2021/06/14 10:54:44;;;;;;;4.35;4.05;;;34.40;90.10;;;;;;5034452;28;20171;-65
2021/06/14 10:57:11;;;;;;;5.10;4.70;;;33.80;91.80;;;;;;5034602;28;20183;-65
2021/06/14 10:59:42;;;;;;;4.82;4.53;;;33.20;92.10;;;;;;5033761;28;20183;-65
2021/06/14 11:02:10;;;;;;;4.57;4.28;;;33.40;93.30;;;;;;5034238;28;20257;-66
2021/06/14 11:04:36;;;;;;;4.70;4.32;;;33.80;92.20;;;;;;5035115;28;20203;-65
2021/06/14 11:07:02;;;;;;;3.80;3.50;;;34.00;91.00;;;;;;5034296;28;20293;-65
2021/06/14 11:09:39;;;;;;;4.32;4.03;;;34.20;91.20;;;;;;5035116;28;20636;-65
2021/06/14 11:12:05;;;;;;;4.65;4.28;;;34.40;91.90;;;;;;5033982;28;20175;-65
2021/06/14 11:14:34;;;;;;;4.35;3.65;;;34.50;91.30;;;;;;5037429;28;20176;-65
2021/06/14 11:17:15;;;;;;;4.60;3.78;;;35.00;91.10;;;;;;5034111;28;20175;-65
2021/06/14 11:19:42;;;;;;;3.92;3.63;;;35.50;81.30;;;;;;5043110;28;20175;-65
2021/06/14 11:22:07;;;;;;;3.70;3.35;;;35.30;86.30;;;;;;5051823;28;20597;-64
2021/06/14 11:24:40;;;;;;;4.07;3.83;;;35.50;80.50;;;;;;5033656;28;20218;-65
2021/06/14 11:27:09;;;;;;;3.58;3.28;;;34.60;72.40;;;;;;5033624;28;20259;-65
2021/06/14 11:29:42;;;;;;;4.20;3.10;;;34.50;72.60;;;;;;5013903;28;20255;-65
2021/06/14 11:32:07;;;;;;;3.70;3.40;;;34.80;73.00;;;;;;5015191;28;20175;-65
2021/06/14 11:34:44;;;;;;;3.75;3.45;;;34.50;66.40;;;;;;5053534;28;20637;-65
2021/06/14 11:37:11;;;;;;;4.70;3.97;;;33.80;73.40;;;;;;5053209;28;20166;-65
2021/06/14 11:39:38;;;;;;;3.90;3.58;;;34.00;72.30;;;;;;5052729;28;20210;-65
2021/06/14 11:42:09;;;;;;;3.97;3.67;;;34.30;71.50;;;;;;5053401;28;20636;-65
2021/06/14 11:44:34;;;;;;;3.63;3.42;;;34.30;75.00;;;;;;5052476;28;20206;-65
2021/06/14 11:47:14;;;;;;;3.60;3.30;;;34.80;74.30;;;;;;5053470;28;20224;-65
2021/06/14 11:49:41;;;;;;;4.22;4.00;;;35.30;70.90;;;;;;5033502;28;20206;-65
2021/06/14 11:52:27;;;;;;;4.60;4.05;;;35.90;78.40;;;;;;5033429;28;20167;-65
2021/06/14 11:54:58;;;;;;;3.13;2.92;;;36.60;74.70;;;;;;5013698;28;20192;-65
2021/06/14 11:57:36;;;;;;;3.55;3.28;;;36.90;73.30;;;;;;5014111;28;20179;-65
2021/06/14 12:00:07;;;;;;;4.05;3.33;;;36.60;67.50;;;;;;5013384;28;20176;-65
2021/06/14 12:02:33;;;;;;;3.63;3.33;;;35.80;68.40;;;;;;5015167;28;20172;-66
2021/06/14 12:05:02;;;;;;;3.45;3.20;;;36.10;68.80;;;;;;5053050;28;20207;-65
2021/06/14 12:07:38;;;;;;;3.60;3.40;;;36.00;65.30;;;;;;5052930;28;20238;-65
2021/06/14 12:10:13;;;;;;;3.75;3.45;;;35.60;68.20;;;;;;5013168;28;20176;-65
2021/06/14 12:12:39;;;;;;;3.45;3.25;;;35.20;66.80;;;;;;5014422;28;20199;-65
2021/06/14 12:15:07;;;;;;;3.45;3.25;;;35.10;65.10;;;;;;5052996;28;20187;-65
2021/06/14 12:17:35;;;;;;;3.65;3.45;;;35.10;65.00;;;;;;5052886;28;20171;-65
2021/06/14 12:20:05;;;;;;;3.92;3.63;;;35.20;66.00;;;;;;5032873;28;20191;-65
2021/06/14 12:22:31;;;;;;;3.53;3.22;;;35.50;65.40;;;;;;5032959;28;20660;-66
2021/06/14 12:25:07;;;;;;;3.53;3.33;;;35.90;70.10;;;;;;5050739;28;20210;-65
2021/06/14 12:27:33;;;;;;;4.05;3.80;;;36.50;66.90;;;;;;5052683;28;20275;-65
2021/06/14 12:30:01;;;;;;;3.38;3.17;;;36.50;67.10;;;;;;5033722;28;20225;-65
2021/06/14 12:32:32;;;;;;;3.85;3.50;;;36.50;65.10;;;;;;5032860;28;20183;-65
2021/06/14 12:35:00;;;;;;;3.58;3.38;;;36.20;67.30;;;;;;5049257;28;20207;-65
2021/06/14 12:37:27;;;;;;;4.28;3.97;;;36.30;64.70;;;;;;5032678;28;20180;-65
2021/06/14 12:40:08;;;;;;;3.72;3.42;;;36.30;63.10;;;;;;5048159;28;20227;-65
2021/06/14 12:42:34;;;;;;;4.13;3.58;;;36.30;68.30;;;;;;5052357;28;20194;-65
2021/06/14 12:45:13;;;;;;;3.15;2.95;;;35.70;61.10;;;;;;5035293;28;20290;-65
2021/06/14 12:47:47;;;;;;;3.45;3.20;;;36.30;71.50;;;;;;5046868;28;20661;-65
2021/06/14 12:50:37;;;;;;;4.05;3.50;;;36.40;65.90;;;;;;5052208;28;20270;-65
2021/06/14 12:53:05;;;;;;;3.83;3.53;;;36.70;65.40;;;;;;5022986;28;20192;-65
2021/06/14 12:55:33;;;;;;;3.72;3.42;;;37.10;63.10;;;;;;5032107;28;20226;-65